METAR AND TAF INFORMATION
METAR FOR EGCC
ADDS - METARS form results

(0304 UTC 14 December 2018)
Data provider http://aviationweather.gov/metar/data/
 
METAR text: EGCC 140250Z AUTO 13004KT 080V180 9999 BKN031 02/M04 Q1022 NOSIG
Conditions at: EGCC (MANCHESTER INTL , GB) observed 0250 UTC 14 December 2018
Temperature: 2.0°C (36°F)
Dewpoint: -4.0°C (25°F) [RH = 64%]
Pressure (altimeter): 30.18 inches Hg (1022.0 mb)
Winds: from the SE (130 degrees) at 5 MPH (4 knots; 2.1 m/s)
Visibility: 6 or more miles (10+ km)
Ceiling: 3100 feet AGL
Clouds: broken clouds at 3100 feet AGL
Weather: no significant weather observed at this time

METAR text: EGCC 140220Z AUTO 13004KT 050V180 9999 SCT031 01/M04 Q1022 NOSIG
Conditions at: EGCC (MANCHESTER INTL , GB) observed 0220 UTC 14 December 2018
Temperature: 1.0°C (34°F)
Dewpoint: -4.0°C (25°F) [RH = 69%]
Pressure (altimeter): 30.18 inches Hg (1022.0 mb)
Winds: from the SE (130 degrees) at 5 MPH (4 knots; 2.1 m/s)
Visibility: 6 or more miles (10+ km)
Ceiling: at least 12,000 feet AGL
Clouds: scattered clouds at 3100 feet AGL
Weather: no significant weather observed at this time

Forecast for: EGCC (MANCHESTER INTL , GB)
Text: TAF EGCC 132301Z 1400/1506 11009KT 9999 FEW045
Forecast period: 0000 UTC 14 December 2018 to 0600 UTC 15 December 2018
Forecast type: FROM: standard forecast or significant change
Winds: from the ESE (110 degrees) at 10 MPH (9 knots; 4.6 m/s)
Visibility: 6 or more miles 10+ km)
Ceiling: at least 12,000 feet AGL
Clouds: few clouds at 4500 feet AGL
Weather: no significant weather forecast for this period
Text: PROB30
Forecast period: 0300 to 1100 UTC 14 December 2018
Forecast type: TEMPORARY: The following changes expected for less than half the time period
Visibility: 5 miles (8 km)
Ceiling: unknown
Clouds: missing
Weather: no significant weather forecast for this period

 AIRPORT MAP

 RUNWAY INFORMATION
Runway 05L Runway length 10000 ft Runway width 150 ft
Runway elevation 212 ft Runway displaced threshold 1401 ft Runway heading 51
Runway 23R Runway length 10000 ft Runway width 150 ft
Runway elevation 249 ft Runway displaced threshold 600 ft Runway heading 231
Runway 05R Runway length 9997 ft Runway width 150 ft
Runway elevation 186 ft Runway displaced threshold 604 ft Runway heading 51
Runway 23L Runway length 9997 ft Runway width 150 ft
Runway elevation 227 ft Runway displaced threshold 604 ft Runway heading 231

 AIRPORT FREQUENCIES
Type APP Name APP Frequency 135 MHZ
Type ATIS Name ATIS Frequency 128.175 MHZ
Type CLD Name CLNC DEL Frequency 121.7 MHZ
Type GND Name GND Frequency 121.85 MHZ
Type TWR Name TWR Frequency 118.625 MHZ

 AIRPORT NEAR NAVIGATION AIDS
Type NDB Name Manchester Frequency 428 KHZ
Type VOR-DME Name Manchester Frequency 113550 KHZ